sensor_id;sensor_type;location;lat;lon;timestamp;temperature;humidity
45765;DHT22;31474;45.332;10.230;2022-12-05T00:01:32;9.80;99.90
45765;DHT22;31474;45.332;10.230;2022-12-05T00:04:01;9.80;99.90
45765;DHT22;31474;45.332;10.230;2022-12-05T00:06:29;9.80;99.90
45765;DHT22;31474;45.332;10.230;2022-12-05T00:08:55;9.70;99.90
45765;DHT22;31474;45.332;10.230;2022-12-05T00:11:23;9.70;99.90
45765;DHT22;31474;45.332;10.230;2022-12-05T00:13:51;9.70;99.90
45765;DHT22;31474;45.332;10.230;2022-12-05T00:16:20;9.70;99.90
45765;DHT22;31474;45.332;10.230;2022-12-05T00:18:46;9.80;99.90
45765;DHT22;31474;45.332;10.230;2022-12-05T00:21:18;9.80;99.90
45765;DHT22;31474;45.332;10.230;2022-12-05T00:23:44;9.80;99.90
45765;DHT22;31474;45.332;10.230;2022-12-05T00:26:10;9.70;99.90
45765;DHT22;31474;45.332;10.230;2022-12-05T00:28:37;9.80;99.90
45765;DHT22;31474;45.332;10.230;2022-12-05T00:31:05;9.80;99.90
45765;DHT22;31474;45.332;10.230;2022-12-05T00:33:31;9.80;99.90
45765;DHT22;31474;45.332;10.230;2022-12-05T00:36:08;9.80;99.90
45765;DHT22;31474;45.332;10.230;2022-12-05T00:38:34;9.80;99.90
45765;DHT22;31474;45.332;10.230;2022-12-05T00:41:05;9.80;99.90
45765;DHT22;31474;45.332;10.230;2022-12-05T00:43:31;9.80;99.90
45765;DHT22;31474;45.332;10.230;2022-12-05T00:46:01;9.70;99.90
45765;DHT22;31474;45.332;10.230;2022-12-05T00:48:27;9.70;99.90
45765;DHT22;31474;45.332;10.230;2022-12-05T00:51:07;9.70;99.90
45765;DHT22;31474;45.332;10.230;2022-12-05T00:53:34;9.70;99.90
45765;DHT22;31474;45.332;10.230;2022-12-05T00:56:12;9.70;99.90
45765;DHT22;31474;45.332;10.230;2022-12-05T00:58:38;9.70;99.90
45765;DHT22;31474;45.332;10.230;2022-12-05T01:01:06;9.70;99.90
45765;DHT22;31474;45.332;10.230;2022-12-05T01:03:32;9.70;99.90
45765;DHT22;31474;45.332;10.230;2022-12-05T01:05:58;9.70;99.90
45765;DHT22;31474;45.332;10.230;2022-12-05T01:08:24;9.70;99.90
45765;DHT22;31474;45.332;10.230;2022-12-05T01:10:54;9.70;99.90
45765;DHT22;31474;45.332;10.230;2022-12-05T01:13:20;9.70;99.90
45765;DHT22;31474;45.332;10.230;2022-12-05T01:15:46;9.60;99.90
45765;DHT22;31474;45.332;10.230;2022-12-05T01:18:12;9.60;99.90
45765;DHT22;31474;45.332;10.230;2022-12-05T01:20:41;9.60;99.90
45765;DHT22;31474;45.332;10.230;2022-12-05T01:23:07;9.60;99.90
45765;DHT22;31474;45.332;10.230;2022-12-05T01:25:34;9.60;99.90
45765;DHT22;31474;45.332;10.230;2022-12-05T01:27:59;9.60;99.90
45765;DHT22;31474;45.332;10.230;2022-12-05T01:30:25;9.60;99.90
45765;DHT22;31474;45.332;10.230;2022-12-05T01:32:51;9.60;99.90
45765;DHT22;31474;45.332;10.230;2022-12-05T01:35:17;9.60;99.90
45765;DHT22;31474;45.332;10.230;2022-12-05T01:37:43;9.60;99.90
45765;DHT22;31474;45.332;10.230;2022-12-05T01:40:09;9.60;99.90
45765;DHT22;31474;45.332;10.230;2022-12-05T01:42:34;9.60;99.90
45765;DHT22;31474;45.332;10.230;2022-12-05T01:45:04;9.60;99.90
45765;DHT22;31474;45.332;10.230;2022-12-05T01:47:31;9.60;99.90
45765;DHT22;31474;45.332;10.230;2022-12-05T01:49:58;9.60;99.90
45765;DHT22;31474;45.332;10.230;2022-12-05T01:52:27;9.60;99.90
45765;DHT22;31474;45.332;10.230;2022-12-05T01:54:58;9.60;99.90
45765;DHT22;31474;45.332;10.230;2022-12-05T01:57:24;9.70;99.90
45765;DHT22;31474;45.332;10.230;2022-12-05T01:59:56;9.70;99.90
45765;DHT22;31474;45.332;10.230;2022-12-05T02:02:22;9.60;99.90
45765;DHT22;31474;45.332;10.230;2022-12-05T02:05:04;9.60;99.90
45765;DHT22;31474;45.332;10.230;2022-12-05T02:07:31;9.60;99.90
45765;DHT22;31474;45.332;10.230;2022-12-05T02:09:57;9.60;99.90
45765;DHT22;31474;45.332;10.230;2022-12-05T02:12:23;9.60;99.90
45765;DHT22;31474;45.332;10.230;2022-12-05T02:18:06;9.60;99.90
45765;DHT22;31474;45.332;10.230;2022-12-05T02:20:44;9.60;99.90
45765;DHT22;31474;45.332;10.230;2022-12-05T02:23:40;9.60;99.90
45765;DHT22;31474;45.332;10.230;2022-12-05T02:39:23;9.60;99.90
45765;DHT22;31474;45.332;10.230;2022-12-05T02:44:42;9.60;99.90
45765;DHT22;31474;45.332;10.230;2022-12-05T02:47:10;9.60;99.90
45765;DHT22;31474;45.332;10.230;2022-12-05T02:49:39;9.60;99.90
45765;DHT22;31474;45.332;10.230;2022-12-05T02:52:09;9.70;99.90
45765;DHT22;31474;45.332;10.230;2022-12-05T02:54:40;9.60;99.90
45765;DHT22;31474;45.332;10.230;2022-12-05T02:57:08;9.70;99.90
45765;DHT22;31474;45.332;10.230;2022-12-05T02:59:34;9.60;99.90
45765;DHT22;31474;45.332;10.230;2022-12-05T03:02:00;9.60;99.90
45765;DHT22;31474;45.332;10.230;2022-12-05T03:04:27;9.60;99.90
45765;DHT22;31474;45.332;10.230;2022-12-05T03:07:07;9.60;99.90
45765;DHT22;31474;45.332;10.230;2022-12-05T03:09:50;9.60;99.90
45765;DHT22;31474;45.332;10.230;2022-12-05T03:12:21;9.60;99.90
45765;DHT22;31474;45.332;10.230;2022-12-05T03:15:13;9.60;99.90
45765;DHT22;31474;45.332;10.230;2022-12-05T03:18:10;9.60;99.90
45765;DHT22;31474;45.332;10.230;2022-12-05T03:20:48;9.60;99.90
45765;DHT22;31474;45.332;10.230;2022-12-05T03:23:24;9.60;99.90
45765;DHT22;31474;45.332;10.230;2022-12-05T03:28:23;9.60;99.90
45765;DHT22;31474;45.332;10.230;2022-12-05T03:30:54;9.60;99.90
45765;DHT22;31474;45.332;10.230;2022-12-05T03:33:25;9.50;99.90
45765;DHT22;31474;45.332;10.230;2022-12-05T03:36:08;9.50;99.90
45765;DHT22;31474;45.332;10.230;2022-12-05T03:41:24;9.40;99.90
45765;DHT22;31474;45.332;10.230;2022-12-05T03:47:13;9.40;99.90
45765;DHT22;31474;45.332;10.230;2022-12-05T03:49:54;9.40;99.90
45765;DHT22;31474;45.332;10.230;2022-12-05T03:52:40;9.40;99.90
45765;DHT22;31474;45.332;10.230;2022-12-05T03:55:08;9.40;99.90
45765;DHT22;31474;45.332;10.230;2022-12-05T03:57:42;9.50;99.90
45765;DHT22;31474;45.332;10.230;2022-12-05T04:00:13;9.50;99.90
45765;DHT22;31474;45.332;10.230;2022-12-05T04:05:31;9.50;99.90
45765;DHT22;31474;45.332;10.230;2022-12-05T04:08:00;9.60;99.90
45765;DHT22;31474;45.332;10.230;2022-12-05T04:10:32;9.60;99.90
45765;DHT22;31474;45.332;10.230;2022-12-05T04:16:09;9.60;99.90
45765;DHT22;31474;45.332;10.230;2022-12-05T04:18:59;9.60;99.90
45765;DHT22;31474;45.332;10.230;2022-12-05T04:21:33;9.60;99.90
45765;DHT22;31474;45.332;10.230;2022-12-05T04:24:09;9.60;99.90
45765;DHT22;31474;45.332;10.230;2022-12-05T04:27:07;9.60;99.90
45765;DHT22;31474;45.332;10.230;2022-12-05T04:29:39;9.50;99.90
45765;DHT22;31474;45.332;10.230;2022-12-05T04:32:10;9.50;99.90
45765;DHT22;31474;45.332;10.230;2022-12-05T04:34:37;9.50;99.90
45765;DHT22;31474;45.332;10.230;2022-12-05T04:37:10;9.60;99.90
45765;DHT22;31474;45.332;10.230;2022-12-05T04:39:46;9.60;99.90
45765;DHT22;31474;45.332;10.230;2022-12-05T04:42:18;9.60;99.90
45765;DHT22;31474;45.332;10.230;2022-12-05T04:44:54;9.60;99.90
45765;DHT22;31474;45.332;10.230;2022-12-05T04:47:23;9.60;99.90
45765;DHT22;31474;45.332;10.230;2022-12-05T04:49:52;9.70;99.90
45765;DHT22;31474;45.332;10.230;2022-12-05T04:52:19;9.70;99.90
45765;DHT22;31474;45.332;10.230;2022-12-05T04:54:46;9.70;99.90
45765;DHT22;31474;45.332;10.230;2022-12-05T04:58:11;9.70;99.90
45765;DHT22;31474;45.332;10.230;2022-12-05T05:00:11;9.60;99.90
45765;DHT22;31474;45.332;10.230;2022-12-05T05:03:04;9.60;99.90
45765;DHT22;31474;45.332;10.230;2022-12-05T05:05:32;9.60;99.90
45765;DHT22;31474;45.332;10.230;2022-12-05T05:07:58;9.60;99.90
45765;DHT22;31474;45.332;10.230;2022-12-05T05:10:44;9.60;99.90
45765;DHT22;31474;45.332;10.230;2022-12-05T05:13:13;9.60;99.90
45765;DHT22;31474;45.332;10.230;2022-12-05T05:15:38;9.60;99.90
45765;DHT22;31474;45.332;10.230;2022-12-05T05:18:04;9.60;99.90
45765;DHT22;31474;45.332;10.230;2022-12-05T05:20:29;9.60;99.90
45765;DHT22;31474;45.332;10.230;2022-12-05T05:22:56;9.60;99.90
45765;DHT22;31474;45.332;10.230;2022-12-05T05:25:23;9.70;99.90
45765;DHT22;31474;45.332;10.230;2022-12-05T05:27:51;9.70;99.90
45765;DHT22;31474;45.332;10.230;2022-12-05T05:30:18;9.70;99.90
45765;DHT22;31474;45.332;10.230;2022-12-05T05:32:44;9.80;99.90
45765;DHT22;31474;45.332;10.230;2022-12-05T05:35:10;9.80;99.90
45765;DHT22;31474;45.332;10.230;2022-12-05T05:37:36;9.80;99.90
45765;DHT22;31474;45.332;10.230;2022-12-05T05:40:03;9.80;99.90
45765;DHT22;31474;45.332;10.230;2022-12-05T05:42:28;9.90;99.90
45765;DHT22;31474;45.332;10.230;2022-12-05T05:44:54;9.90;99.90
45765;DHT22;31474;45.332;10.230;2022-12-05T05:47:20;9.90;99.90
45765;DHT22;31474;45.332;10.230;2022-12-05T05:49:45;9.90;99.90
45765;DHT22;31474;45.332;10.230;2022-12-05T05:52:11;9.90;99.90
45765;DHT22;31474;45.332;10.230;2022-12-05T05:54:36;9.90;99.90
45765;DHT22;31474;45.332;10.230;2022-12-05T05:57:02;9.90;99.90
45765;DHT22;31474;45.332;10.230;2022-12-05T05:59:28;9.90;99.90
45765;DHT22;31474;45.332;10.230;2022-12-05T06:01:53;9.90;99.90
45765;DHT22;31474;45.332;10.230;2022-12-05T06:04:19;9.90;99.90
45765;DHT22;31474;45.332;10.230;2022-12-05T06:06:44;9.90;99.90
45765;DHT22;31474;45.332;10.230;2022-12-05T06:09:10;9.90;99.90
45765;DHT22;31474;45.332;10.230;2022-12-05T06:11:36;9.80;99.90
45765;DHT22;31474;45.332;10.230;2022-12-05T06:14:01;9.80;99.90
45765;DHT22;31474;45.332;10.230;2022-12-05T06:16:29;9.90;99.90
45765;DHT22;31474;45.332;10.230;2022-12-05T06:18:55;9.90;99.90
45765;DHT22;31474;45.332;10.230;2022-12-05T06:21:21;9.90;99.90
45765;DHT22;31474;45.332;10.230;2022-12-05T06:23:47;9.80;99.90
45765;DHT22;31474;45.332;10.230;2022-12-05T06:26:15;9.80;99.90
45765;DHT22;31474;45.332;10.230;2022-12-05T06:28:41;9.80;99.90
45765;DHT22;31474;45.332;10.230;2022-12-05T06:31:13;9.80;99.90
45765;DHT22;31474;45.332;10.230;2022-12-05T06:33:39;9.80;99.90
45765;DHT22;31474;45.332;10.230;2022-12-05T06:36:12;9.80;99.90
45765;DHT22;31474;45.332;10.230;2022-12-05T06:38:38;9.90;99.90
45765;DHT22;31474;45.332;10.230;2022-12-05T06:41:05;9.80;99.90
45765;DHT22;31474;45.332;10.230;2022-12-05T06:43:31;9.90;99.90
45765;DHT22;31474;45.332;10.230;2022-12-05T06:45:57;9.90;99.90
45765;DHT22;31474;45.332;10.230;2022-12-05T06:48:23;9.90;99.90
45765;DHT22;31474;45.332;10.230;2022-12-05T06:50:52;9.90;99.90
45765;DHT22;31474;45.332;10.230;2022-12-05T06:53:20;9.90;99.90
45765;DHT22;31474;45.332;10.230;2022-12-05T06:55:56;9.90;99.90
45765;DHT22;31474;45.332;10.230;2022-12-05T06:58:22;9.80;99.90
45765;DHT22;31474;45.332;10.230;2022-12-05T07:00:47;9.80;99.90
45765;DHT22;31474;45.332;10.230;2022-12-05T07:03:32;9.80;99.90
45765;DHT22;31474;45.332;10.230;2022-12-05T07:06:02;9.80;99.90
45765;DHT22;31474;45.332;10.230;2022-12-05T07:08:28;9.80;99.90
45765;DHT22;31474;45.332;10.230;2022-12-05T07:10:53;9.80;99.90
45765;DHT22;31474;45.332;10.230;2022-12-05T07:13:19;9.90;99.90
45765;DHT22;31474;45.332;10.230;2022-12-05T07:15:46;9.80;99.90
45765;DHT22;31474;45.332;10.230;2022-12-05T07:18:13;9.80;99.90
45765;DHT22;31474;45.332;10.230;2022-12-05T07:20:39;9.80;99.90
45765;DHT22;31474;45.332;10.230;2022-12-05T07:23:04;9.80;99.90
45765;DHT22;31474;45.332;10.230;2022-12-05T07:25:30;9.80;99.90
45765;DHT22;31474;45.332;10.230;2022-12-05T07:27:55;9.80;99.90
45765;DHT22;31474;45.332;10.230;2022-12-05T07:30:21;9.90;99.90
45765;DHT22;31474;45.332;10.230;2022-12-05T07:32:47;9.90;99.90
45765;DHT22;31474;45.332;10.230;2022-12-05T07:35:12;9.90;99.90
45765;DHT22;31474;45.332;10.230;2022-12-05T07:37:38;10.00;99.90
45765;DHT22;31474;45.332;10.230;2022-12-05T07:40:05;10.00;99.90
45765;DHT22;31474;45.332;10.230;2022-12-05T07:42:31;10.00;99.90
45765;DHT22;31474;45.332;10.230;2022-12-05T07:44:57;10.00;99.90
45765;DHT22;31474;45.332;10.230;2022-12-05T07:47:22;10.00;99.90
45765;DHT22;31474;45.332;10.230;2022-12-05T07:49:48;10.00;99.90
45765;DHT22;31474;45.332;10.230;2022-12-05T07:52:13;10.00;99.90
45765;DHT22;31474;45.332;10.230;2022-12-05T07:54:39;10.10;99.90
45765;DHT22;31474;45.332;10.230;2022-12-05T07:57:05;10.10;99.90
45765;DHT22;31474;45.332;10.230;2022-12-05T07:59:30;10.20;99.90
45765;DHT22;31474;45.332;10.230;2022-12-05T08:01:56;10.10;99.90
45765;DHT22;31474;45.332;10.230;2022-12-05T08:04:22;10.10;99.90
45765;DHT22;31474;45.332;10.230;2022-12-05T08:06:47;10.10;99.90
45765;DHT22;31474;45.332;10.230;2022-12-05T08:09:13;10.10;99.90
45765;DHT22;31474;45.332;10.230;2022-12-05T08:11:39;10.10;99.90
45765;DHT22;31474;45.332;10.230;2022-12-05T08:14:05;10.20;99.90
45765;DHT22;31474;45.332;10.230;2022-12-05T08:16:31;10.20;99.90
45765;DHT22;31474;45.332;10.230;2022-12-05T08:19:01;10.10;99.90
45765;DHT22;31474;45.332;10.230;2022-12-05T08:21:27;10.20;99.90
45765;DHT22;31474;45.332;10.230;2022-12-05T08:23:53;10.10;99.90
45765;DHT22;31474;45.332;10.230;2022-12-05T08:26:27;10.00;99.90
45765;DHT22;31474;45.332;10.230;2022-12-05T08:29:05;10.00;99.90
45765;DHT22;31474;45.332;10.230;2022-12-05T08:31:33;10.10;99.90
45765;DHT22;31474;45.332;10.230;2022-12-05T08:34:00;10.10;99.90
45765;DHT22;31474;45.332;10.230;2022-12-05T08:36:28;10.20;99.90
45765;DHT22;31474;45.332;10.230;2022-12-05T08:38:58;10.20;99.90
45765;DHT22;31474;45.332;10.230;2022-12-05T08:41:25;10.20;99.90
45765;DHT22;31474;45.332;10.230;2022-12-05T08:43:57;10.30;99.90
45765;DHT22;31474;45.332;10.230;2022-12-05T08:46:23;10.30;99.90
45765;DHT22;31474;45.332;10.230;2022-12-05T08:48:48;10.30;99.90
45765;DHT22;31474;45.332;10.230;2022-12-05T08:51:14;10.30;99.90
45765;DHT22;31474;45.332;10.230;2022-12-05T08:53:40;10.30;99.90
45765;DHT22;31474;45.332;10.230;2022-12-05T08:56:08;10.40;99.90
45765;DHT22;31474;45.332;10.230;2022-12-05T08:58:34;10.40;99.90
45765;DHT22;31474;45.332;10.230;2022-12-05T09:01:17;10.40;99.90
45765;DHT22;31474;45.332;10.230;2022-12-05T09:03:44;10.40;99.90
45765;DHT22;31474;45.332;10.230;2022-12-05T09:08:37;10.40;99.90
45765;DHT22;31474;45.332;10.230;2022-12-05T09:11:15;10.50;99.90
45765;DHT22;31474;45.332;10.230;2022-12-05T09:13:42;10.50;99.90
45765;DHT22;31474;45.332;10.230;2022-12-05T09:16:10;10.50;99.90
45765;DHT22;31474;45.332;10.230;2022-12-05T09:18:36;10.60;99.90
45765;DHT22;31474;45.332;10.230;2022-12-05T09:21:10;10.60;99.90
45765;DHT22;31474;45.332;10.230;2022-12-05T09:23:36;10.60;99.90
45765;DHT22;31474;45.332;10.230;2022-12-05T09:26:05;10.50;99.90
45765;DHT22;31474;45.332;10.230;2022-12-05T09:28:31;10.60;99.90
45765;DHT22;31474;45.332;10.230;2022-12-05T09:31:00;10.60;99.90
45765;DHT22;31474;45.332;10.230;2022-12-05T09:33:27;10.60;99.90
45765;DHT22;31474;45.332;10.230;2022-12-05T09:35:52;10.60;99.90
45765;DHT22;31474;45.332;10.230;2022-12-05T09:38:18;10.70;99.90
45765;DHT22;31474;45.332;10.230;2022-12-05T09:40:44;10.70;99.90
45765;DHT22;31474;45.332;10.230;2022-12-05T09:43:24;10.80;99.90
45765;DHT22;31474;45.332;10.230;2022-12-05T09:46:37;10.80;99.90
45765;DHT22;31474;45.332;10.230;2022-12-05T09:49:08;10.80;99.90
45765;DHT22;31474;45.332;10.230;2022-12-05T09:51:38;10.80;99.90
45765;DHT22;31474;45.332;10.230;2022-12-05T09:54:05;10.80;99.90
45765;DHT22;31474;45.332;10.230;2022-12-05T09:56:32;10.80;99.90
45765;DHT22;31474;45.332;10.230;2022-12-05T09:58:58;10.90;99.90
45765;DHT22;31474;45.332;10.230;2022-12-05T10:15:32;10.70;99.90
45765;DHT22;31474;45.332;10.230;2022-12-05T10:18:43;10.80;99.90
45765;DHT22;31474;45.332;10.230;2022-12-05T10:21:02;10.80;99.90
45765;DHT22;31474;45.332;10.230;2022-12-05T10:23:51;10.80;99.90
45765;DHT22;31474;45.332;10.230;2022-12-05T10:26:20;10.80;99.90
45765;DHT22;31474;45.332;10.230;2022-12-05T10:29:01;10.80;99.90
45765;DHT22;31474;45.332;10.230;2022-12-05T10:31:30;10.80;99.90
45765;DHT22;31474;45.332;10.230;2022-12-05T10:34:37;10.90;99.90
45765;DHT22;31474;45.332;10.230;2022-12-05T10:37:19;10.90;99.90
45765;DHT22;31474;45.332;10.230;2022-12-05T10:39:47;10.90;99.90
45765;DHT22;31474;45.332;10.230;2022-12-05T10:42:16;10.90;99.90
45765;DHT22;31474;45.332;10.230;2022-12-05T10:44:44;10.90;99.90
45765;DHT22;31474;45.332;10.230;2022-12-05T10:47:11;10.90;99.90
45765;DHT22;31474;45.332;10.230;2022-12-05T10:49:37;10.90;99.90
45765;DHT22;31474;45.332;10.230;2022-12-05T10:52:03;10.90;99.90
45765;DHT22;31474;45.332;10.230;2022-12-05T10:54:31;10.90;99.90
45765;DHT22;31474;45.332;10.230;2022-12-05T10:57:21;10.90;99.90
45765;DHT22;31474;45.332;10.230;2022-12-05T10:59:48;10.90;99.90
45765;DHT22;31474;45.332;10.230;2022-12-05T11:02:40;10.90;99.90
45765;DHT22;31474;45.332;10.230;2022-12-05T11:05:06;10.80;99.90
45765;DHT22;31474;45.332;10.230;2022-12-05T11:07:35;10.90;99.90
45765;DHT22;31474;45.332;10.230;2022-12-05T11:10:18;10.90;99.90
45765;DHT22;31474;45.332;10.230;2022-12-05T11:12:44;10.90;99.90
45765;DHT22;31474;45.332;10.230;2022-12-05T11:17:47;10.90;99.90
45765;DHT22;31474;45.332;10.230;2022-12-05T11:22:53;11.00;99.90
45765;DHT22;31474;45.332;10.230;2022-12-05T11:25:31;11.00;99.90
45765;DHT22;31474;45.332;10.230;2022-12-05T11:27:59;11.00;99.90
45765;DHT22;31474;45.332;10.230;2022-12-05T11:30:27;11.00;99.90
45765;DHT22;31474;45.332;10.230;2022-12-05T11:33:18;11.00;99.90
45765;DHT22;31474;45.332;10.230;2022-12-05T11:35:46;11.00;99.90
45765;DHT22;31474;45.332;10.230;2022-12-05T11:38:13;11.00;99.90
45765;DHT22;31474;45.332;10.230;2022-12-05T11:46:01;11.10;99.90
45765;DHT22;31474;45.332;10.230;2022-12-05T11:48:35;11.20;99.90
45765;DHT22;31474;45.332;10.230;2022-12-05T11:54:02;11.20;99.90
45765;DHT22;31474;45.332;10.230;2022-12-05T11:56:42;11.20;99.90
45765;DHT22;31474;45.332;10.230;2022-12-05T11:59:26;11.20;99.90
45765;DHT22;31474;45.332;10.230;2022-12-05T12:05:21;11.20;99.90
45765;DHT22;31474;45.332;10.230;2022-12-05T12:16:52;11.20;99.90
45765;DHT22;31474;45.332;10.230;2022-12-05T12:22:22;11.20;99.90
45765;DHT22;31474;45.332;10.230;2022-12-05T12:33:03;11.20;99.90
45765;DHT22;31474;45.332;10.230;2022-12-05T12:35:43;11.20;99.90
45765;DHT22;31474;45.332;10.230;2022-12-05T12:38:32;11.20;99.90
45765;DHT22;31474;45.332;10.230;2022-12-05T12:41:36;11.30;99.90
45765;DHT22;31474;45.332;10.230;2022-12-05T12:44:22;11.30;99.90
45765;DHT22;31474;45.332;10.230;2022-12-05T12:46:54;11.30;99.90
45765;DHT22;31474;45.332;10.230;2022-12-05T12:49:44;11.30;99.90
45765;DHT22;31474;45.332;10.230;2022-12-05T12:52:21;11.30;99.90
45765;DHT22;31474;45.332;10.230;2022-12-05T12:55:22;11.30;99.90
45765;DHT22;31474;45.332;10.230;2022-12-05T13:01:00;11.20;99.90
45765;DHT22;31474;45.332;10.230;2022-12-05T13:03:46;11.20;99.90
45765;DHT22;31474;45.332;10.230;2022-12-05T13:06:21;11.20;99.90
45765;DHT22;31474;45.332;10.230;2022-12-05T13:08:54;11.20;99.90
45765;DHT22;31474;45.332;10.230;2022-12-05T13:11:21;11.30;99.90
45765;DHT22;31474;45.332;10.230;2022-12-05T13:13:51;11.20;99.90
45765;DHT22;31474;45.332;10.230;2022-12-05T13:16:27;11.30;99.90
45765;DHT22;31474;45.332;10.230;2022-12-05T13:18:54;11.30;99.90
45765;DHT22;31474;45.332;10.230;2022-12-05T13:21:21;11.30;99.90
45765;DHT22;31474;45.332;10.230;2022-12-05T13:23:49;11.20;99.90
45765;DHT22;31474;45.332;10.230;2022-12-05T13:26:16;11.20;99.90
45765;DHT22;31474;45.332;10.230;2022-12-05T13:29:02;11.20;99.90
45765;DHT22;31474;45.332;10.230;2022-12-05T13:31:42;11.20;99.90
45765;DHT22;31474;45.332;10.230;2022-12-05T13:37:09;11.20;99.90
45765;DHT22;31474;45.332;10.230;2022-12-05T13:39:56;11.20;99.90
45765;DHT22;31474;45.332;10.230;2022-12-05T13:42:41;11.20;99.90
45765;DHT22;31474;45.332;10.230;2022-12-05T13:45:10;11.10;99.90
45765;DHT22;31474;45.332;10.230;2022-12-05T13:51:05;11.10;99.90
45765;DHT22;31474;45.332;10.230;2022-12-05T13:53:56;11.10;99.90
45765;DHT22;31474;45.332;10.230;2022-12-05T13:56:52;11.20;99.90
45765;DHT22;31474;45.332;10.230;2022-12-05T14:07:51;11.20;99.90
45765;DHT22;31474;45.332;10.230;2022-12-05T14:13:01;11.30;99.90
45765;DHT22;31474;45.332;10.230;2022-12-05T14:21:16;11.30;99.90
45765;DHT22;31474;45.332;10.230;2022-12-05T14:26:31;11.30;99.90
45765;DHT22;31474;45.332;10.230;2022-12-05T14:34:12;11.30;99.90
45765;DHT22;31474;45.332;10.230;2022-12-05T14:36:54;11.40;99.90
45765;DHT22;31474;45.332;10.230;2022-12-05T14:39:44;11.40;99.90
45765;DHT22;31474;45.332;10.230;2022-12-05T14:42:36;11.40;99.90
45765;DHT22;31474;45.332;10.230;2022-12-05T15:01:20;11.30;99.90
45765;DHT22;31474;45.332;10.230;2022-12-05T15:06:53;11.30;99.90
45765;DHT22;31474;45.332;10.230;2022-12-05T15:12:16;11.30;99.90
45765;DHT22;31474;45.332;10.230;2022-12-05T15:14:53;11.30;99.90
45765;DHT22;31474;45.332;10.230;2022-12-05T15:17:26;11.30;99.90
45765;DHT22;31474;45.332;10.230;2022-12-05T15:20:03;11.30;99.90
45765;DHT22;31474;45.332;10.230;2022-12-05T15:22:33;11.30;99.90
45765;DHT22;31474;45.332;10.230;2022-12-05T15:27:58;11.30;99.90
45765;DHT22;31474;45.332;10.230;2022-12-05T15:30:25;11.30;99.90
45765;DHT22;31474;45.332;10.230;2022-12-05T15:32:51;11.30;99.90
45765;DHT22;31474;45.332;10.230;2022-12-05T15:35:17;11.30;99.90
45765;DHT22;31474;45.332;10.230;2022-12-05T15:37:49;11.30;99.90
45765;DHT22;31474;45.332;10.230;2022-12-05T15:40:17;11.30;99.90
45765;DHT22;31474;45.332;10.230;2022-12-05T15:42:53;11.30;99.90
45765;DHT22;31474;45.332;10.230;2022-12-05T15:48:11;11.30;99.90
45765;DHT22;31474;45.332;10.230;2022-12-05T15:50:39;11.20;99.90
45765;DHT22;31474;45.332;10.230;2022-12-05T15:58:39;11.20;99.90
45765;DHT22;31474;45.332;10.230;2022-12-05T16:01:22;11.20;99.90
45765;DHT22;31474;45.332;10.230;2022-12-05T16:06:42;11.20;99.90
45765;DHT22;31474;45.332;10.230;2022-12-05T16:09:14;11.20;99.90
45765;DHT22;31474;45.332;10.230;2022-12-05T16:12:02;11.20;99.90
45765;DHT22;31474;45.332;10.230;2022-12-05T16:14:31;11.20;99.90
45765;DHT22;31474;45.332;10.230;2022-12-05T16:16:59;11.20;99.90
45765;DHT22;31474;45.332;10.230;2022-12-05T16:19:27;11.20;99.90
45765;DHT22;31474;45.332;10.230;2022-12-05T16:24:37;11.20;99.90
45765;DHT22;31474;45.332;10.230;2022-12-05T16:27:20;11.20;99.90
45765;DHT22;31474;45.332;10.230;2022-12-05T16:30:26;11.20;99.90
45765;DHT22;31474;45.332;10.230;2022-12-05T16:33:01;11.20;99.90
45765;DHT22;31474;45.332;10.230;2022-12-05T16:35:33;11.10;99.90
45765;DHT22;31474;45.332;10.230;2022-12-05T16:40:31;11.10;99.90
45765;DHT22;31474;45.332;10.230;2022-12-05T16:43:14;11.10;99.90
45765;DHT22;31474;45.332;10.230;2022-12-05T16:45:45;11.10;99.90
45765;DHT22;31474;45.332;10.230;2022-12-05T16:50:42;11.10;99.90
45765;DHT22;31474;45.332;10.230;2022-12-05T16:55:37;11.10;99.90
45765;DHT22;31474;45.332;10.230;2022-12-05T16:58:04;11.10;99.90
45765;DHT22;31474;45.332;10.230;2022-12-05T17:00:30;11.10;99.90
45765;DHT22;31474;45.332;10.230;2022-12-05T17:02:56;11.10;99.90
45765;DHT22;31474;45.332;10.230;2022-12-05T17:05:25;11.10;99.90
45765;DHT22;31474;45.332;10.230;2022-12-05T17:07:50;11.10;99.90
45765;DHT22;31474;45.332;10.230;2022-12-05T17:10:17;11.00;99.90
45765;DHT22;31474;45.332;10.230;2022-12-05T17:12:43;11.00;99.90
45765;DHT22;31474;45.332;10.230;2022-12-05T17:15:16;11.00;99.90
45765;DHT22;31474;45.332;10.230;2022-12-05T17:17:42;11.00;99.90
45765;DHT22;31474;45.332;10.230;2022-12-05T17:20:08;11.00;99.90
45765;DHT22;31474;45.332;10.230;2022-12-05T17:22:34;11.00;99.90
45765;DHT22;31474;45.332;10.230;2022-12-05T17:25:00;11.00;99.90
45765;DHT22;31474;45.332;10.230;2022-12-05T17:27:26;10.90;99.90
45765;DHT22;31474;45.332;10.230;2022-12-05T17:29:51;10.90;99.90
45765;DHT22;31474;45.332;10.230;2022-12-05T17:32:17;10.90;99.90
45765;DHT22;31474;45.332;10.230;2022-12-05T17:34:43;10.90;99.90
45765;DHT22;31474;45.332;10.230;2022-12-05T17:37:08;10.90;99.90
45765;DHT22;31474;45.332;10.230;2022-12-05T17:39:34;10.80;99.90
45765;DHT22;31474;45.332;10.230;2022-12-05T17:41:59;10.90;99.90
45765;DHT22;31474;45.332;10.230;2022-12-05T17:44:25;10.80;99.90
45765;DHT22;31474;45.332;10.230;2022-12-05T17:46:51;10.90;99.90
45765;DHT22;31474;45.332;10.230;2022-12-05T17:49:17;10.90;99.90
45765;DHT22;31474;45.332;10.230;2022-12-05T17:51:43;10.90;99.90
45765;DHT22;31474;45.332;10.230;2022-12-05T17:54:08;10.80;99.90
45765;DHT22;31474;45.332;10.230;2022-12-05T17:56:35;10.90;99.90
45765;DHT22;31474;45.332;10.230;2022-12-05T17:59:00;10.90;99.90
45765;DHT22;31474;45.332;10.230;2022-12-05T18:01:26;10.90;99.90
45765;DHT22;31474;45.332;10.230;2022-12-05T18:03:51;10.90;99.90
45765;DHT22;31474;45.332;10.230;2022-12-05T18:06:17;10.90;99.90
45765;DHT22;31474;45.332;10.230;2022-12-05T18:08:43;10.90;99.90
45765;DHT22;31474;45.332;10.230;2022-12-05T18:11:11;10.80;99.90
45765;DHT22;31474;45.332;10.230;2022-12-05T18:13:37;10.80;99.90
45765;DHT22;31474;45.332;10.230;2022-12-05T18:16:03;10.80;99.90
45765;DHT22;31474;45.332;10.230;2022-12-05T18:18:29;10.80;99.90
45765;DHT22;31474;45.332;10.230;2022-12-05T18:21:08;10.70;99.90
45765;DHT22;31474;45.332;10.230;2022-12-05T18:23:35;10.70;99.90
45765;DHT22;31474;45.332;10.230;2022-12-05T18:26:01;10.70;99.90
45765;DHT22;31474;45.332;10.230;2022-12-05T18:28:27;10.70;99.90
45765;DHT22;31474;45.332;10.230;2022-12-05T18:31:10;10.60;99.90
45765;DHT22;31474;45.332;10.230;2022-12-05T18:33:36;10.60;99.90